sensor_id;sensor_type;location;lat;lon;timestamp;P1;durP1;ratioP1;P2;durP2;ratioP2
12990;SDS011;6560;57.692;11.958;2023-02-28T00:01:00;16.23;;;5.60;;
12990;SDS011;6560;57.692;11.958;2023-02-28T00:03:26;8.20;;;5.03;;
12990;SDS011;6560;57.692;11.958;2023-02-28T00:05:51;9.43;;;5.03;;
12990;SDS011;6560;57.692;11.958;2023-02-28T00:08:16;7.77;;;4.50;;
12990;SDS011;6560;57.692;11.958;2023-02-28T00:10:42;6.67;;;4.87;;
12990;SDS011;6560;57.692;11.958;2023-02-28T00:13:07;7.37;;;5.40;;
12990;SDS011;6560;57.692;11.958;2023-02-28T00:15:32;7.53;;;4.87;;
12990;SDS011;6560;57.692;11.958;2023-02-28T00:17:58;7.53;;;5.50;;
12990;SDS011;6560;57.692;11.958;2023-02-28T00:20:23;12.20;;;4.70;;
12990;SDS011;6560;57.692;11.958;2023-02-28T00:22:50;8.43;;;5.13;;
12990;SDS011;6560;57.692;11.958;2023-02-28T00:25:16;14.73;;;4.60;;
12990;SDS011;6560;57.692;11.958;2023-02-28T00:27:42;9.10;;;5.27;;
12990;SDS011;6560;57.692;11.958;2023-02-28T00:30:09;13.43;;;5.27;;
12990;SDS011;6560;57.692;11.958;2023-02-28T00:32:35;9.57;;;4.93;;
12990;SDS011;6560;57.692;11.958;2023-02-28T00:35:00;6.40;;;4.60;;
12990;SDS011;6560;57.692;11.958;2023-02-28T00:37:26;8.40;;;4.93;;
12990;SDS011;6560;57.692;11.958;2023-02-28T00:39:51;7.90;;;5.07;;
12990;SDS011;6560;57.692;11.958;2023-02-28T00:42:16;10.37;;;5.00;;
12990;SDS011;6560;57.692;11.958;2023-02-28T00:44:42;11.20;;;6.10;;
12990;SDS011;6560;57.692;11.958;2023-02-28T00:47:07;8.07;;;5.13;;
12990;SDS011;6560;57.692;11.958;2023-02-28T00:49:32;14.57;;;5.87;;
12990;SDS011;6560;57.692;11.958;2023-02-28T00:51:58;8.57;;;4.73;;
12990;SDS011;6560;57.692;11.958;2023-02-28T00:54:23;7.57;;;5.37;;
12990;SDS011;6560;57.692;11.958;2023-02-28T00:56:49;10.00;;;4.90;;
12990;SDS011;6560;57.692;11.958;2023-02-28T00:59:15;11.83;;;5.37;;
12990;SDS011;6560;57.692;11.958;2023-02-28T01:01:41;9.30;;;5.43;;
12990;SDS011;6560;57.692;11.958;2023-02-28T01:04:06;9.00;;;4.30;;
12990;SDS011;6560;57.692;11.958;2023-02-28T01:06:31;7.70;;;4.90;;
12990;SDS011;6560;57.692;11.958;2023-02-28T01:08:57;12.33;;;4.87;;
12990;SDS011;6560;57.692;11.958;2023-02-28T01:11:23;7.13;;;4.67;;
12990;SDS011;6560;57.692;11.958;2023-02-28T01:13:48;11.37;;;5.50;;
12990;SDS011;6560;57.692;11.958;2023-02-28T01:16:14;13.30;;;5.17;;
12990;SDS011;6560;57.692;11.958;2023-02-28T01:18:39;14.23;;;5.17;;
12990;SDS011;6560;57.692;11.958;2023-02-28T01:21:10;9.33;;;5.83;;
12990;SDS011;6560;57.692;11.958;2023-02-28T01:23:35;11.03;;;5.00;;
12990;SDS011;6560;57.692;11.958;2023-02-28T01:26:05;9.87;;;5.90;;
12990;SDS011;6560;57.692;11.958;2023-02-28T01:28:30;10.67;;;5.13;;
12990;SDS011;6560;57.692;11.958;2023-02-28T01:30:56;8.87;;;5.77;;
12990;SDS011;6560;57.692;11.958;2023-02-28T01:33:21;8.47;;;4.63;;
12990;SDS011;6560;57.692;11.958;2023-02-28T01:35:47;6.60;;;4.53;;
12990;SDS011;6560;57.692;11.958;2023-02-28T01:38:12;8.00;;;4.60;;
12990;SDS011;6560;57.692;11.958;2023-02-28T01:40:37;9.27;;;5.77;;
12990;SDS011;6560;57.692;11.958;2023-02-28T01:43:04;8.33;;;4.70;;
12990;SDS011;6560;57.692;11.958;2023-02-28T01:45:30;7.80;;;4.93;;
12990;SDS011;6560;57.692;11.958;2023-02-28T01:48:00;8.97;;;5.10;;
12990;SDS011;6560;57.692;11.958;2023-02-28T01:50:28;8.53;;;4.70;;
12990;SDS011;6560;57.692;11.958;2023-02-28T01:52:55;8.80;;;4.60;;
12990;SDS011;6560;57.692;11.958;2023-02-28T01:55:22;8.70;;;4.90;;
12990;SDS011;6560;57.692;11.958;2023-02-28T01:57:50;9.13;;;4.83;;
12990;SDS011;6560;57.692;11.958;2023-02-28T02:00:18;5.80;;;4.30;;
12990;SDS011;6560;57.692;11.958;2023-02-28T02:02:46;11.47;;;4.80;;
12990;SDS011;6560;57.692;11.958;2023-02-28T02:05:14;7.53;;;4.23;;
12990;SDS011;6560;57.692;11.958;2023-02-28T02:07:41;7.00;;;5.27;;
12990;SDS011;6560;57.692;11.958;2023-02-28T02:15:37;8.87;;;4.47;;
12990;SDS011;6560;57.692;11.958;2023-02-28T02:18:05;8.67;;;5.40;;
12990;SDS011;6560;57.692;11.958;2023-02-28T02:23:53;9.30;;;4.37;;
12990;SDS011;6560;57.692;11.958;2023-02-28T02:28:55;8.43;;;5.10;;
12990;SDS011;6560;57.692;11.958;2023-02-28T02:34:09;8.43;;;4.70;;
12990;SDS011;6560;57.692;11.958;2023-02-28T02:37:24;8.23;;;4.90;;
12990;SDS011;6560;57.692;11.958;2023-02-28T02:39:31;7.70;;;4.53;;
12990;SDS011;6560;57.692;11.958;2023-02-28T02:42:00;7.13;;;4.40;;
12990;SDS011;6560;57.692;11.958;2023-02-28T02:44:37;10.13;;;5.10;;
12990;SDS011;6560;57.692;11.958;2023-02-28T02:47:09;7.97;;;4.57;;
12990;SDS011;6560;57.692;11.958;2023-02-28T02:49:36;7.13;;;4.00;;
12990;SDS011;6560;57.692;11.958;2023-02-28T02:52:06;6.43;;;4.40;;
12990;SDS011;6560;57.692;11.958;2023-02-28T02:54:33;6.23;;;4.53;;
12990;SDS011;6560;57.692;11.958;2023-02-28T02:57:00;9.17;;;4.93;;
12990;SDS011;6560;57.692;11.958;2023-02-28T02:59:27;6.53;;;3.80;;
12990;SDS011;6560;57.692;11.958;2023-02-28T03:01:54;5.57;;;3.47;;
12990;SDS011;6560;57.692;11.958;2023-02-28T03:04:22;3.97;;;2.93;;
12990;SDS011;6560;57.692;11.958;2023-02-28T03:06:47;4.80;;;3.53;;
12990;SDS011;6560;57.692;11.958;2023-02-28T03:09:13;6.93;;;3.20;;
12990;SDS011;6560;57.692;11.958;2023-02-28T03:11:38;3.30;;;2.50;;
12990;SDS011;6560;57.692;11.958;2023-02-28T03:22:01;4.17;;;3.40;;
12990;SDS011;6560;57.692;11.958;2023-02-28T03:24:24;4.27;;;3.07;;
12990;SDS011;6560;57.692;11.958;2023-02-28T03:26:59;5.27;;;3.60;;
12990;SDS011;6560;57.692;11.958;2023-02-28T03:29:35;5.63;;;3.37;;
12990;SDS011;6560;57.692;11.958;2023-02-28T03:32:08;4.47;;;3.67;;
12990;SDS011;6560;57.692;11.958;2023-02-28T03:34:41;5.57;;;3.70;;
12990;SDS011;6560;57.692;11.958;2023-02-28T03:37:08;4.83;;;3.57;;
12990;SDS011;6560;57.692;11.958;2023-02-28T03:39:49;4.80;;;3.40;;
12990;SDS011;6560;57.692;11.958;2023-02-28T03:42:17;9.47;;;3.97;;
12990;SDS011;6560;57.692;11.958;2023-02-28T03:44:45;5.57;;;3.57;;
12990;SDS011;6560;57.692;11.958;2023-02-28T03:47:16;5.40;;;3.60;;
12990;SDS011;6560;57.692;11.958;2023-02-28T03:49:45;6.47;;;3.43;;
12990;SDS011;6560;57.692;11.958;2023-02-28T03:52:12;6.57;;;3.70;;
12990;SDS011;6560;57.692;11.958;2023-02-28T03:54:41;5.10;;;3.53;;
12990;SDS011;6560;57.692;11.958;2023-02-28T03:57:10;5.23;;;3.37;;
12990;SDS011;6560;57.692;11.958;2023-02-28T03:59:38;5.07;;;3.17;;
12990;SDS011;6560;57.692;11.958;2023-02-28T04:02:04;5.97;;;4.07;;
12990;SDS011;6560;57.692;11.958;2023-02-28T04:04:30;4.57;;;3.20;;
12990;SDS011;6560;57.692;11.958;2023-02-28T04:07:06;4.17;;;3.20;;
12990;SDS011;6560;57.692;11.958;2023-02-28T04:09:32;5.33;;;3.13;;
12990;SDS011;6560;57.692;11.958;2023-02-28T04:11:58;5.13;;;3.43;;
12990;SDS011;6560;57.692;11.958;2023-02-28T04:14:23;5.13;;;3.40;;
12990;SDS011;6560;57.692;11.958;2023-02-28T04:16:49;6.10;;;3.47;;
12990;SDS011;6560;57.692;11.958;2023-02-28T04:19:16;4.83;;;3.40;;
12990;SDS011;6560;57.692;11.958;2023-02-28T04:21:42;5.23;;;3.43;;
12990;SDS011;6560;57.692;11.958;2023-02-28T04:24:08;7.57;;;3.20;;
12990;SDS011;6560;57.692;11.958;2023-02-28T04:26:38;7.17;;;4.60;;
12990;SDS011;6560;57.692;11.958;2023-02-28T04:29:05;6.97;;;3.93;;
12990;SDS011;6560;57.692;11.958;2023-02-28T04:31:31;5.73;;;3.67;;
12990;SDS011;6560;57.692;11.958;2023-02-28T04:33:56;9.67;;;4.40;;
12990;SDS011;6560;57.692;11.958;2023-02-28T04:36:21;5.37;;;3.93;;
12990;SDS011;6560;57.692;11.958;2023-02-28T04:38:48;6.43;;;3.60;;
12990;SDS011;6560;57.692;11.958;2023-02-28T04:41:13;4.13;;;3.33;;
12990;SDS011;6560;57.692;11.958;2023-02-28T04:43:39;4.33;;;3.20;;
12990;SDS011;6560;57.692;11.958;2023-02-28T04:46:05;9.70;;;4.37;;
12990;SDS011;6560;57.692;11.958;2023-02-28T04:48:32;4.37;;;2.87;;
12990;SDS011;6560;57.692;11.958;2023-02-28T04:51:01;10.73;;;4.53;;
12990;SDS011;6560;57.692;11.958;2023-02-28T04:53:27;5.13;;;3.27;;
12990;SDS011;6560;57.692;11.958;2023-02-28T04:55:52;7.30;;;3.73;;
12990;SDS011;6560;57.692;11.958;2023-02-28T04:58:18;6.27;;;3.77;;
12990;SDS011;6560;57.692;11.958;2023-02-28T05:00:43;7.77;;;3.83;;
12990;SDS011;6560;57.692;11.958;2023-02-28T05:03:09;7.23;;;3.37;;
12990;SDS011;6560;57.692;11.958;2023-02-28T05:05:34;5.80;;;3.70;;
12990;SDS011;6560;57.692;11.958;2023-02-28T05:08:00;5.67;;;3.73;;
12990;SDS011;6560;57.692;11.958;2023-02-28T05:10:25;6.90;;;3.90;;
12990;SDS011;6560;57.692;11.958;2023-02-28T05:12:51;5.60;;;3.83;;
12990;SDS011;6560;57.692;11.958;2023-02-28T05:15:16;5.40;;;3.80;;
12990;SDS011;6560;57.692;11.958;2023-02-28T05:17:41;6.67;;;3.60;;
12990;SDS011;6560;57.692;11.958;2023-02-28T05:20:07;6.40;;;4.23;;
12990;SDS011;6560;57.692;11.958;2023-02-28T05:22:39;9.40;;;4.57;;
12990;SDS011;6560;57.692;11.958;2023-02-28T05:25:05;9.80;;;3.57;;
12990;SDS011;6560;57.692;11.958;2023-02-28T05:27:31;6.20;;;4.07;;
12990;SDS011;6560;57.692;11.958;2023-02-28T05:29:56;8.40;;;4.47;;
12990;SDS011;6560;57.692;11.958;2023-02-28T05:32:21;6.50;;;4.23;;
12990;SDS011;6560;57.692;11.958;2023-02-28T05:34:47;7.17;;;4.87;;
12990;SDS011;6560;57.692;11.958;2023-02-28T05:37:12;8.60;;;4.40;;
12990;SDS011;6560;57.692;11.958;2023-02-28T05:39:38;5.73;;;4.13;;
12990;SDS011;6560;57.692;11.958;2023-02-28T05:42:03;5.53;;;4.17;;
12990;SDS011;6560;57.692;11.958;2023-02-28T05:44:29;5.90;;;3.97;;
12990;SDS011;6560;57.692;11.958;2023-02-28T05:46:54;10.07;;;4.13;;
12990;SDS011;6560;57.692;11.958;2023-02-28T05:49:20;5.70;;;3.53;;
12990;SDS011;6560;57.692;11.958;2023-02-28T05:51:45;8.80;;;4.17;;
12990;SDS011;6560;57.692;11.958;2023-02-28T05:54:10;6.00;;;3.80;;
12990;SDS011;6560;57.692;11.958;2023-02-28T05:56:35;5.63;;;4.30;;
12990;SDS011;6560;57.692;11.958;2023-02-28T05:59:03;7.87;;;4.00;;
12990;SDS011;6560;57.692;11.958;2023-02-28T06:01:33;5.57;;;3.80;;
12990;SDS011;6560;57.692;11.958;2023-02-28T06:04:02;6.40;;;4.00;;
12990;SDS011;6560;57.692;11.958;2023-02-28T06:06:35;8.17;;;3.43;;
12990;SDS011;6560;57.692;11.958;2023-02-28T06:09:02;4.07;;;3.33;;
12990;SDS011;6560;57.692;11.958;2023-02-28T06:11:27;7.87;;;4.10;;
12990;SDS011;6560;57.692;11.958;2023-02-28T06:13:53;5.03;;;3.67;;
12990;SDS011;6560;57.692;11.958;2023-02-28T06:16:19;7.67;;;4.57;;
12990;SDS011;6560;57.692;11.958;2023-02-28T06:18:44;13.97;;;4.10;;
12990;SDS011;6560;57.692;11.958;2023-02-28T06:21:09;6.37;;;4.40;;
12990;SDS011;6560;57.692;11.958;2023-02-28T06:23:35;5.70;;;3.90;;
12990;SDS011;6560;57.692;11.958;2023-02-28T06:26:00;6.70;;;4.73;;
12990;SDS011;6560;57.692;11.958;2023-02-28T06:28:25;7.67;;;4.50;;
12990;SDS011;6560;57.692;11.958;2023-02-28T06:30:51;8.77;;;4.13;;
12990;SDS011;6560;57.692;11.958;2023-02-28T06:33:16;11.53;;;4.10;;
12990;SDS011;6560;57.692;11.958;2023-02-28T06:35:46;5.27;;;3.50;;
12990;SDS011;6560;57.692;11.958;2023-02-28T06:38:11;7.10;;;4.00;;
12990;SDS011;6560;57.692;11.958;2023-02-28T06:40:37;9.57;;;3.47;;
12990;SDS011;6560;57.692;11.958;2023-02-28T06:43:02;7.60;;;4.03;;
12990;SDS011;6560;57.692;11.958;2023-02-28T06:45:28;4.53;;;3.80;;
12990;SDS011;6560;57.692;11.958;2023-02-28T06:47:53;8.87;;;3.13;;
12990;SDS011;6560;57.692;11.958;2023-02-28T06:50:18;8.03;;;4.23;;
12990;SDS011;6560;57.692;11.958;2023-02-28T06:52:45;4.07;;;3.17;;
12990;SDS011;6560;57.692;11.958;2023-02-28T06:55:10;6.77;;;3.80;;
12990;SDS011;6560;57.692;11.958;2023-02-28T06:57:36;8.67;;;4.20;;
12990;SDS011;6560;57.692;11.958;2023-02-28T07:00:02;5.57;;;4.00;;
12990;SDS011;6560;57.692;11.958;2023-02-28T07:02:28;11.03;;;5.30;;
12990;SDS011;6560;57.692;11.958;2023-02-28T07:04:53;9.63;;;4.90;;
12990;SDS011;6560;57.692;11.958;2023-02-28T07:07:19;7.63;;;4.73;;
12990;SDS011;6560;57.692;11.958;2023-02-28T07:09:44;6.40;;;4.33;;
12990;SDS011;6560;57.692;11.958;2023-02-28T07:12:09;6.60;;;4.20;;
12990;SDS011;6560;57.692;11.958;2023-02-28T07:14:36;9.43;;;4.53;;
12990;SDS011;6560;57.692;11.958;2023-02-28T07:17:01;6.13;;;4.87;;
12990;SDS011;6560;57.692;11.958;2023-02-28T07:19:26;9.07;;;5.07;;
12990;SDS011;6560;57.692;11.958;2023-02-28T07:21:53;12.70;;;5.73;;
12990;SDS011;6560;57.692;11.958;2023-02-28T07:24:18;11.23;;;5.83;;
12990;SDS011;6560;57.692;11.958;2023-02-28T07:26:43;13.90;;;6.93;;
12990;SDS011;6560;57.692;11.958;2023-02-28T07:29:08;19.33;;;8.23;;
12990;SDS011;6560;57.692;11.958;2023-02-28T07:31:34;25.07;;;8.80;;
12990;SDS011;6560;57.692;11.958;2023-02-28T07:33:59;51.93;;;11.10;;
12990;SDS011;6560;57.692;11.958;2023-02-28T07:36:25;47.67;;;11.80;;
12990;SDS011;6560;57.692;11.958;2023-02-28T07:38:50;41.33;;;11.37;;
12990;SDS011;6560;57.692;11.958;2023-02-28T07:41:16;97.20;;;16.90;;
12990;SDS011;6560;57.692;11.958;2023-02-28T07:43:41;86.30;;;15.37;;
12990;SDS011;6560;57.692;11.958;2023-02-28T07:46:08;112.30;;;17.87;;
12990;SDS011;6560;57.692;11.958;2023-02-28T07:48:33;103.33;;;15.30;;
12990;SDS011;6560;57.692;11.958;2023-02-28T07:50:59;100.97;;;16.73;;
12990;SDS011;6560;57.692;11.958;2023-02-28T07:53:25;202.43;;;26.17;;
12990;SDS011;6560;57.692;11.958;2023-02-28T07:55:51;161.83;;;24.73;;
12990;SDS011;6560;57.692;11.958;2023-02-28T07:58:19;109.07;;;18.77;;
12990;SDS011;6560;57.692;11.958;2023-02-28T08:00:47;88.60;;;16.20;;
12990;SDS011;6560;57.692;11.958;2023-02-28T08:03:12;68.50;;;14.20;;
12990;SDS011;6560;57.692;11.958;2023-02-28T08:05:39;140.83;;;21.33;;
12990;SDS011;6560;57.692;11.958;2023-02-28T08:08:04;79.33;;;15.47;;
12990;SDS011;6560;57.692;11.958;2023-02-28T08:10:30;67.47;;;14.50;;
12990;SDS011;6560;57.692;11.958;2023-02-28T08:12:55;57.97;;;12.93;;
12990;SDS011;6560;57.692;11.958;2023-02-28T08:15:20;68.97;;;13.33;;
12990;SDS011;6560;57.692;11.958;2023-02-28T08:17:46;66.73;;;13.53;;
12990;SDS011;6560;57.692;11.958;2023-02-28T08:20:11;92.67;;;16.07;;
12990;SDS011;6560;57.692;11.958;2023-02-28T08:22:36;101.93;;;17.80;;
12990;SDS011;6560;57.692;11.958;2023-02-28T08:25:02;62.10;;;14.33;;
12990;SDS011;6560;57.692;11.958;2023-02-28T08:27:27;60.57;;;13.77;;
12990;SDS011;6560;57.692;11.958;2023-02-28T08:29:53;63.37;;;12.63;;
12990;SDS011;6560;57.692;11.958;2023-02-28T08:32:18;40.33;;;11.20;;
12990;SDS011;6560;57.692;11.958;2023-02-28T08:34:44;33.90;;;10.63;;
12990;SDS011;6560;57.692;11.958;2023-02-28T08:37:09;27.80;;;8.97;;
12990;SDS011;6560;57.692;11.958;2023-02-28T08:39:36;35.50;;;9.87;;
12990;SDS011;6560;57.692;11.958;2023-02-28T08:42:02;72.87;;;13.77;;
12990;SDS011;6560;57.692;11.958;2023-02-28T08:44:27;48.80;;;11.50;;
12990;SDS011;6560;57.692;11.958;2023-02-28T08:46:52;164.77;;;27.17;;
12990;SDS011;6560;57.692;11.958;2023-02-28T08:49:18;26.30;;;8.93;;
12990;SDS011;6560;57.692;11.958;2023-02-28T08:51:43;49.60;;;10.43;;
12990;SDS011;6560;57.692;11.958;2023-02-28T08:54:09;46.47;;;12.17;;
12990;SDS011;6560;57.692;11.958;2023-02-28T08:56:37;61.10;;;12.57;;
12990;SDS011;6560;57.692;11.958;2023-02-28T08:59:03;102.07;;;17.30;;
12990;SDS011;6560;57.692;11.958;2023-02-28T09:01:28;24.23;;;7.47;;
12990;SDS011;6560;57.692;11.958;2023-02-28T09:03:54;14.03;;;6.80;;
12990;SDS011;6560;57.692;11.958;2023-02-28T09:06:20;15.90;;;7.37;;
12990;SDS011;6560;57.692;11.958;2023-02-28T09:08:46;20.00;;;8.47;;
12990;SDS011;6560;57.692;11.958;2023-02-28T09:11:11;22.73;;;7.27;;
12990;SDS011;6560;57.692;11.958;2023-02-28T09:13:37;147.50;;;19.87;;
12990;SDS011;6560;57.692;11.958;2023-02-28T09:16:03;120.57;;;16.57;;
12990;SDS011;6560;57.692;11.958;2023-02-28T09:18:29;57.50;;;13.60;;
12990;SDS011;6560;57.692;11.958;2023-02-28T09:20:54;23.43;;;8.90;;
12990;SDS011;6560;57.692;11.958;2023-02-28T09:23:20;131.93;;;22.20;;
12990;SDS011;6560;57.692;11.958;2023-02-28T09:25:49;18.47;;;8.80;;
12990;SDS011;6560;57.692;11.958;2023-02-28T09:28:15;39.73;;;10.37;;
12990;SDS011;6560;57.692;11.958;2023-02-28T09:30:41;93.40;;;14.83;;
12990;SDS011;6560;57.692;11.958;2023-02-28T09:33:07;14.97;;;7.00;;
12990;SDS011;6560;57.692;11.958;2023-02-28T09:35:32;14.10;;;7.77;;
12990;SDS011;6560;57.692;11.958;2023-02-28T09:37:57;13.87;;;7.00;;
12990;SDS011;6560;57.692;11.958;2023-02-28T09:40:30;29.17;;;8.10;;
12990;SDS011;6560;57.692;11.958;2023-02-28T09:42:56;17.43;;;7.60;;
12990;SDS011;6560;57.692;11.958;2023-02-28T09:45:26;12.83;;;6.67;;
12990;SDS011;6560;57.692;11.958;2023-02-28T09:47:54;18.57;;;7.30;;
12990;SDS011;6560;57.692;11.958;2023-02-28T09:50:35;12.10;;;6.40;;
12990;SDS011;6560;57.692;11.958;2023-02-28T09:53:15;12.87;;;6.83;;
12990;SDS011;6560;57.692;11.958;2023-02-28T09:55:45;12.47;;;6.67;;
12990;SDS011;6560;57.692;11.958;2023-02-28T10:01:09;8.83;;;6.53;;
12990;SDS011;6560;57.692;11.958;2023-02-28T10:03:38;13.93;;;7.60;;
12990;SDS011;6560;57.692;11.958;2023-02-28T10:06:10;10.63;;;6.47;;
12990;SDS011;6560;57.692;11.958;2023-02-28T10:11:21;13.47;;;7.60;;
12990;SDS011;6560;57.692;11.958;2023-02-28T10:16:37;10.57;;;6.70;;
12990;SDS011;6560;57.692;11.958;2023-02-28T10:21:37;9.67;;;6.73;;
12990;SDS011;6560;57.692;11.958;2023-02-28T10:24:49;13.27;;;7.47;;
12990;SDS011;6560;57.692;11.958;2023-02-28T10:26:49;9.90;;;7.07;;
12990;SDS011;6560;57.692;11.958;2023-02-28T10:29:17;10.47;;;7.10;;
12990;SDS011;6560;57.692;11.958;2023-02-28T10:31:43;11.27;;;7.67;;
12990;SDS011;6560;57.692;11.958;2023-02-28T10:34:08;12.20;;;8.00;;
12990;SDS011;6560;57.692;11.958;2023-02-28T10:36:36;13.10;;;7.37;;
12990;SDS011;6560;57.692;11.958;2023-02-28T10:39:03;12.00;;;6.87;;
12990;SDS011;6560;57.692;11.958;2023-02-28T10:41:47;10.77;;;7.63;;
12990;SDS011;6560;57.692;11.958;2023-02-28T10:44:22;10.60;;;6.83;;
12990;SDS011;6560;57.692;11.958;2023-02-28T10:46:48;10.63;;;7.40;;
12990;SDS011;6560;57.692;11.958;2023-02-28T10:49:16;11.23;;;7.57;;
12990;SDS011;6560;57.692;11.958;2023-02-28T10:51:42;9.73;;;7.10;;
12990;SDS011;6560;57.692;11.958;2023-02-28T10:54:27;8.80;;;7.00;;
12990;SDS011;6560;57.692;11.958;2023-02-28T10:57:14;11.60;;;6.90;;
12990;SDS011;6560;57.692;11.958;2023-02-28T10:59:40;10.07;;;6.40;;
12990;SDS011;6560;57.692;11.958;2023-02-28T11:02:29;8.43;;;6.63;;
12990;SDS011;6560;57.692;11.958;2023-02-28T11:04:54;9.40;;;6.83;;
12990;SDS011;6560;57.692;11.958;2023-02-28T11:07:21;10.50;;;7.17;;
12990;SDS011;6560;57.692;11.958;2023-02-28T11:09:54;7.90;;;6.43;;
12990;SDS011;6560;57.692;11.958;2023-02-28T11:12:29;9.97;;;6.97;;
12990;SDS011;6560;57.692;11.958;2023-02-28T11:14:57;9.10;;;6.90;;
12990;SDS011;6560;57.692;11.958;2023-02-28T11:17:27;12.63;;;7.53;;
12990;SDS011;6560;57.692;11.958;2023-02-28T11:19:53;8.70;;;6.80;;
12990;SDS011;6560;57.692;11.958;2023-02-28T11:22:33;6.87;;;5.50;;
12990;SDS011;6560;57.692;11.958;2023-02-28T11:25:01;9.40;;;6.67;;
12990;SDS011;6560;57.692;11.958;2023-02-28T11:29:56;9.30;;;6.70;;
12990;SDS011;6560;57.692;11.958;2023-02-28T11:32:22;9.93;;;6.90;;
12990;SDS011;6560;57.692;11.958;2023-02-28T11:37:25;8.47;;;6.23;;
12990;SDS011;6560;57.692;11.958;2023-02-28T11:39:52;11.37;;;6.60;;
12990;SDS011;6560;57.692;11.958;2023-02-28T11:47:32;10.80;;;6.60;;
12990;SDS011;6560;57.692;11.958;2023-02-28T11:50:20;9.93;;;6.43;;
12990;SDS011;6560;57.692;11.958;2023-02-28T11:52:54;9.33;;;6.43;;
12990;SDS011;6560;57.692;11.958;2023-02-28T11:55:24;8.53;;;5.90;;
12990;SDS011;6560;57.692;11.958;2023-02-28T12:05:34;11.57;;;6.23;;
12990;SDS011;6560;57.692;11.958;2023-02-28T12:10:26;10.50;;;6.40;;
12990;SDS011;6560;57.692;11.958;2023-02-28T12:17:55;14.73;;;5.80;;
12990;SDS011;6560;57.692;11.958;2023-02-28T12:20:28;10.27;;;5.70;;
12990;SDS011;6560;57.692;11.958;2023-02-28T12:28:10;9.90;;;6.27;;
12990;SDS011;6560;57.692;11.958;2023-02-28T12:30:37;9.67;;;5.57;;
12990;SDS011;6560;57.692;11.958;2023-02-28T12:33:09;9.47;;;5.60;;
12990;SDS011;6560;57.692;11.958;2023-02-28T12:35:37;12.43;;;6.30;;
12990;SDS011;6560;57.692;11.958;2023-02-28T12:40:50;12.10;;;5.87;;
12990;SDS011;6560;57.692;11.958;2023-02-28T12:43:14;9.70;;;6.50;;
12990;SDS011;6560;57.692;11.958;2023-02-28T12:45:49;10.47;;;5.63;;
12990;SDS011;6560;57.692;11.958;2023-02-28T12:48:17;9.60;;;6.07;;
12990;SDS011;6560;57.692;11.958;2023-02-28T12:50:44;10.00;;;6.07;;
12990;SDS011;6560;57.692;11.958;2023-02-28T12:56:07;11.77;;;6.17;;
12990;SDS011;6560;57.692;11.958;2023-02-28T12:58:39;13.63;;;7.47;;
12990;SDS011;6560;57.692;11.958;2023-02-28T13:03:46;10.27;;;6.53;;
12990;SDS011;6560;57.692;11.958;2023-02-28T13:09:16;9.53;;;5.70;;
12990;SDS011;6560;57.692;11.958;2023-02-28T13:11:43;9.50;;;5.47;;
12990;SDS011;6560;57.692;11.958;2023-02-28T13:17:18;8.90;;;6.27;;
12990;SDS011;6560;57.692;11.958;2023-02-28T13:24:50;10.93;;;5.20;;
12990;SDS011;6560;57.692;11.958;2023-02-28T13:30:00;10.77;;;5.13;;
12990;SDS011;6560;57.692;11.958;2023-02-28T13:32:31;9.17;;;4.80;;
12990;SDS011;6560;57.692;11.958;2023-02-28T13:39:53;7.67;;;3.47;;
12990;SDS011;6560;57.692;11.958;2023-02-28T13:52:45;7.70;;;3.63;;
12990;SDS011;6560;57.692;11.958;2023-02-28T13:55:57;9.67;;;3.53;;
12990;SDS011;6560;57.692;11.958;2023-02-28T14:06:18;8.10;;;3.97;;
12990;SDS011;6560;57.692;11.958;2023-02-28T14:08:50;7.07;;;3.73;;
12990;SDS011;6560;57.692;11.958;2023-02-28T14:11:28;6.40;;;3.70;;
12990;SDS011;6560;57.692;11.958;2023-02-28T14:13:53;10.33;;;3.93;;
12990;SDS011;6560;57.692;11.958;2023-02-28T14:16:35;10.03;;;4.73;;
12990;SDS011;6560;57.692;11.958;2023-02-28T14:19:03;11.50;;;6.13;;
12990;SDS011;6560;57.692;11.958;2023-02-28T14:21:34;4.73;;;3.90;;
12990;SDS011;6560;57.692;11.958;2023-02-28T14:26:32;11.83;;;4.47;;
12990;SDS011;6560;57.692;11.958;2023-02-28T14:31:42;27.60;;;13.40;;
12990;SDS011;6560;57.692;11.958;2023-02-28T14:34:31;7.93;;;5.00;;
12990;SDS011;6560;57.692;11.958;2023-02-28T14:37:00;4.87;;;3.37;;
12990;SDS011;6560;57.692;11.958;2023-02-28T14:39:26;6.30;;;3.23;;
12990;SDS011;6560;57.692;11.958;2023-02-28T14:41:52;4.43;;;3.43;;
12990;SDS011;6560;57.692;11.958;2023-02-28T14:44:19;8.47;;;3.70;;
12990;SDS011;6560;57.692;11.958;2023-02-28T14:46:45;5.07;;;2.90;;
12990;SDS011;6560;57.692;11.958;2023-02-28T14:51:50;4.77;;;3.17;;
12990;SDS011;6560;57.692;11.958;2023-02-28T14:54:16;6.83;;;3.50;;
12990;SDS011;6560;57.692;11.958;2023-02-28T14:56:49;3.20;;;2.90;;
12990;SDS011;6560;57.692;11.958;2023-02-28T14:59:23;3.87;;;2.93;;
12990;SDS011;6560;57.692;11.958;2023-02-28T15:01:49;4.37;;;3.20;;
12990;SDS011;6560;57.692;11.958;2023-02-28T15:04:18;6.27;;;3.27;;
12990;SDS011;6560;57.692;11.958;2023-02-28T15:06:46;4.70;;;3.03;;
12990;SDS011;6560;57.692;11.958;2023-02-28T15:11:37;8.33;;;3.43;;
12990;SDS011;6560;57.692;11.958;2023-02-28T15:14:03;6.20;;;2.97;;
12990;SDS011;6560;57.692;11.958;2023-02-28T15:21:25;7.70;;;4.53;;
12990;SDS011;6560;57.692;11.958;2023-02-28T15:23:53;9.70;;;3.20;;
12990;SDS011;6560;57.692;11.958;2023-02-28T15:26:20;6.87;;;3.10;;
12990;SDS011;6560;57.692;11.958;2023-02-28T15:28:47;5.27;;;3.00;;
12990;SDS011;6560;57.692;11.958;2023-02-28T15:31:27;6.63;;;2.67;;
12990;SDS011;6560;57.692;11.958;2023-02-28T15:33:54;4.83;;;3.17;;
12990;SDS011;6560;57.692;11.958;2023-02-28T15:36:19;3.57;;;2.97;;
12990;SDS011;6560;57.692;11.958;2023-02-28T15:38:51;5.77;;;2.57;;
12990;SDS011;6560;57.692;11.958;2023-02-28T15:41:27;4.37;;;2.47;;
12990;SDS011;6560;57.692;11.958;2023-02-28T15:46:40;6.97;;;2.53;;
12990;SDS011;6560;57.692;11.958;2023-02-28T15:49:18;7.90;;;3.53;;
12990;SDS011;6560;57.692;11.958;2023-02-28T15:51:44;9.50;;;2.97;;
12990;SDS011;6560;57.692;11.958;2023-02-28T15:54:14;11.33;;;3.00;;
12990;SDS011;6560;57.692;11.958;2023-02-28T15:56:43;7.27;;;2.90;;
12990;SDS011;6560;57.692;11.958;2023-02-28T15:59:14;6.20;;;3.33;;
12990;SDS011;6560;57.692;11.958;2023-02-28T16:01:40;4.80;;;2.87;;
12990;SDS011;6560;57.692;11.958;2023-02-28T16:04:15;8.80;;;3.47;;
12990;SDS011;6560;57.692;11.958;2023-02-28T16:06:44;12.93;;;3.27;;
12990;SDS011;6560;57.692;11.958;2023-02-28T16:09:13;8.87;;;3.07;;
12990;SDS011;6560;57.692;11.958;2023-02-28T16:11:47;13.60;;;4.07;;
12990;SDS011;6560;57.692;11.958;2023-02-28T16:14:14;7.30;;;3.27;;
12990;SDS011;6560;57.692;11.958;2023-02-28T16:16:44;8.07;;;3.27;;
12990;SDS011;6560;57.692;11.958;2023-02-28T16:19:10;14.03;;;3.90;;
12990;SDS011;6560;57.692;11.958;2023-02-28T16:21:36;5.93;;;2.63;;
12990;SDS011;6560;57.692;11.958;2023-02-28T16:24:01;13.77;;;3.93;;
12990;SDS011;6560;57.692;11.958;2023-02-28T16:26:26;6.40;;;3.13;;
12990;SDS011;6560;57.692;11.958;2023-02-28T16:28:53;4.50;;;3.07;;
12990;SDS011;6560;57.692;11.958;2023-02-28T16:31:18;6.07;;;3.03;;
12990;SDS011;6560;57.692;11.958;2023-02-28T16:33:44;8.93;;;3.57;;
12990;SDS011;6560;57.692;11.958;2023-02-28T16:36:14;10.17;;;3.37;;
12990;SDS011;6560;57.692;11.958;2023-02-28T16:38:39;7.37;;;3.10;;
12990;SDS011;6560;57.692;11.958;2023-02-28T16:41:05;11.10;;;3.60;;
12990;SDS011;6560;57.692;11.958;2023-02-28T16:43:30;5.00;;;3.00;;
12990;SDS011;6560;57.692;11.958;2023-02-28T16:45:56;9.77;;;3.40;;
12990;SDS011;6560;57.692;11.958;2023-02-28T16:48:23;6.90;;;4.07;;
12990;SDS011;6560;57.692;11.958;2023-02-28T16:50:48;7.50;;;3.73;;